Time;durP1;ratioP1;P1;durP2;ratioP2;P2;SDS_P1;SDS_P2;PMS_P1;PMS_P2;Temp;Humidity;BMP_temperature;BMP_pressure;BME280_temperature;BME280_humidity;BME280_pressure;Samples;Min_cycle;Max_cycle;Signal;HPM_P1;HPM_P2
2023/01/18 00:00:27;;;;;;;;;;;;;;;;;;5014464;28;19939;-88
2023/01/18 00:02:53;;;;;;;;;;;;;;;;;;5014396;28;19921;-88
2023/01/18 00:05:21;;;;;;;;;;;;;;;;;;5014305;28;19922;-88
2023/01/18 00:07:47;;;;;;;;;;;;;;;;;;5014125;28;19926;-88
2023/01/18 00:10:13;;;;;;;;;;;;;;;;;;5014421;28;20020;-88
2023/01/18 00:12:39;;;;;;;;;;;;;;;;;;5014346;28;19944;-88
2023/01/18 00:15:04;;;;;;;;;;;;;;;;;;5014135;28;19921;-88
2023/01/18 00:17:30;;;;;;;;;;;;;;;;;;5014157;28;19972;-88
2023/01/18 00:19:56;;;;;;;;;;;;;;;;;;5014079;28;20073;-88
2023/01/18 00:22:22;;;;;;;;;;;;;;;;;;5014353;28;19992;-89
2023/01/18 00:24:49;;;;;;;;;;;;;;;;;;5014313;28;20016;-88
2023/01/18 00:27:15;;;;;;;;;;;;;;;;;;5014201;28;19925;-88
2023/01/18 00:29:41;;;;;;;;;;;;;;;;;;5013884;28;19975;-88
2023/01/18 00:32:07;;;;;;;;;;;;;;;;;;5013860;28;20050;-87
2023/01/18 00:34:33;;;;;;;;;;;;;;;;;;5013719;28;19928;-88
2023/01/18 00:36:59;;;;;;;;;;;;;;;;;;5013609;28;19995;-88
2023/01/18 00:39:25;;;;;;;;;;;;;;;;;;5013964;28;20381;-88
2023/01/18 00:44:43;;;;;;;;;;;;;;;;;;4998345;28;19929;-88
2023/01/18 00:47:09;;;;;;;;;;;;;;;;;;5013299;28;19925;-88
2023/01/18 00:49:35;;;;;;;;;;;;;;;;;;5013584;28;20143;-88
2023/01/18 00:52:01;;;;;;;;;;;;;;;;;;5013537;28;19959;-89
2023/01/18 00:54:27;;;;;;;;;;;;;;;;;;5013616;28;20019;-89
2023/01/18 00:56:53;;;;;;;;;;;;;;;;;;5013585;28;20020;-89
2023/01/18 00:59:19;;;;;;;;;;;;;;;;;;5013744;28;19945;-89
2023/01/18 01:01:45;;;;;;;;;;;;;;;;;;5013330;28;19929;-89
2023/01/18 01:06:55;;;;;;;;;;;;;;;;;;5012691;28;19933;-89
2023/01/18 01:09:21;;;;;;;;;;;;;;;;;;5013152;28;19947;-88
2023/01/18 01:28:16;;;;;;;;;;;;;;;;;;5012587;28;19929;-88
2023/01/18 01:30:43;;;;;;;;;;;;;;;;;;5012735;28;19968;-88
2023/01/18 01:33:09;;;;;;;;;;;;;;;;;;5012430;28;19932;-88
2023/01/18 01:35:35;;;;;;;;;;;;;;;;;;5012585;28;19929;-88
2023/01/18 01:38:01;;;;;;;;;;;;;;;;;;5012534;28;19960;-88
2023/01/18 01:40:26;;;;;;;;;;;;;;;;;;5012600;28;19921;-88
2023/01/18 01:42:52;;;;;;;;;;;;;;;;;;5012497;28;20337;-89
2023/01/18 01:45:18;;;;;;;;;;;;;;;;;;5012562;28;19963;-88
2023/01/18 01:47:44;;;;;;;;;;;;;;;;;;5012308;28;20021;-89
2023/01/18 01:50:10;;;;;;;;;;;;;;;;;;5012329;28;20075;-89
2023/01/18 01:52:36;;;;;;;;;;;;;;;;;;5012456;28;20337;-88
2023/01/18 01:55:02;;;;;;;;;;;;;;;;;;5012439;28;19921;-88
2023/01/18 01:57:28;;;;;;;;;;;;;;;;;;5012287;28;20241;-88
2023/01/18 01:59:54;;;;;;;;;;;;;;;;;;5012690;28;19996;-87
2023/01/18 02:02:20;;;;;;;;;;;;;;;;;;5012324;28;20385;-87
2023/01/18 02:04:52;;;;;;;;;;;;;;;;;;5012247;28;19927;-88
2023/01/18 02:07:18;;;;;;;;;;;;;;;;;;5012159;28;19956;-88
2023/01/18 02:09:44;;;;;;;;;;;;;;;;;;5012363;28;19925;-87
2023/01/18 02:12:10;;;;;;;;;;;;;;;;;;5012357;28;19928;-88
2023/01/18 02:14:35;;;;;;;;;;;;;;;;;;5011956;28;19967;-88
2023/01/18 02:17:01;;;;;;;;;;;;;;;;;;5011876;28;19922;-88
2023/01/18 02:19:27;;;;;;;;;;;;;;;;;;5011178;28;20012;-88
2023/01/18 02:21:53;;;;;;;;;;;;;;;;;;5012348;28;20284;-87
2023/01/18 02:24:19;;;;;;;;;;;;;;;;;;5011874;28;19922;-88
2023/01/18 02:26:45;;;;;;;;;;;;;;;;;;5011771;28;20292;-88
2023/01/18 02:29:11;;;;;;;;;;;;;;;;;;5011696;28;19929;-88
2023/01/18 02:31:37;;;;;;;;;;;;;;;;;;5011731;28;19929;-88
2023/01/18 02:34:03;;;;;;;;;;;;;;;;;;5011587;28;20316;-90
2023/01/18 02:36:29;;;;;;;;;;;;;;;;;;5012036;28;19921;-89
2023/01/18 02:38:54;;;;;;;;;;;;;;;;;;5011992;28;19921;-89
2023/01/18 02:41:20;;;;;;;;;;;;;;;;;;5011689;28;19929;-88
2023/01/18 02:46:34;;;;;;;;;;;;;;;;;;5011404;28;20420;-88
2023/01/18 02:49:00;;;;;;;;;;;;;;;;;;5011458;28;20403;-88
2023/01/18 02:51:26;;;;;;;;;;;;;;;;;;5011311;28;19953;-88
2023/01/18 02:53:52;;;;;;;;;;;;;;;;;;5011713;28;19928;-88
2023/01/18 02:56:18;;;;;;;;;;;;;;;;;;5011510;28;19925;-89
2023/01/18 02:58:44;;;;;;;;;;;;;;;;;;5011481;28;19922;-90
2023/01/18 03:01:10;;;;;;;;;;;;;;;;;;5011334;28;19921;-88
2023/01/18 03:03:36;;;;;;;;;;;;;;;;;;5011203;28;19922;-89
2023/01/18 03:06:02;;;;;;;;;;;;;;;;;;5011355;28;19945;-88
2023/01/18 03:08:28;;;;;;;;;;;;;;;;;;5011071;28;19929;-88
2023/01/18 03:10:54;;;;;;;;;;;;;;;;;;5011663;28;20024;-88
2023/01/18 03:13:20;;;;;;;;;;;;;;;;;;5011584;28;20442;-88
2023/01/18 03:15:45;;;;;;;;;;;;;;;;;;5011203;28;20021;-89
2023/01/18 03:18:11;;;;;;;;;;;;;;;;;;5011005;28;19921;-88
2023/01/18 03:20:37;;;;;;;;;;;;;;;;;;5011312;28;19932;-89
2023/01/18 03:25:48;;;;;;;;;;;;;;;;;;5010979;28;20210;-88
2023/01/18 03:33:44;;;;;;;;;;;;;;;;;;5014809;28;20340;-88
2023/01/18 03:36:10;;;;;;;;;;;;;;;;;;5015275;28;20288;-88
2023/01/18 03:38:36;;;;;;;;;;;;;;;;;;5015133;28;19928;-88
2023/01/18 03:41:02;;;;;;;;;;;;;;;;;;5014967;28;19925;-88
2023/01/18 03:43:31;;;;;;;;;;;;;;;;;;5014965;28;19932;-88
2023/01/18 03:45:57;;;;;;;;;;;;;;;;;;5014924;28;20020;-88
2023/01/18 03:48:23;;;;;;;;;;;;;;;;;;5014386;28;20060;-88
2023/01/18 03:50:49;;;;;;;;;;;;;;;;;;5015388;28;19921;-88
2023/01/18 03:53:15;;;;;;;;;;;;;;;;;;5014570;28;20336;-88
2023/01/18 03:55:41;;;;;;;;;;;;;;;;;;5014309;28;20016;-88
2023/01/18 03:58:08;;;;;;;;;;;;;;;;;;5014445;28;19927;-88
2023/01/18 04:00:34;;;;;;;;;;;;;;;;;;5014351;28;20439;-88
2023/01/18 04:03:00;;;;;;;;;;;;;;;;;;5014183;28;19925;-88
2023/01/18 04:05:25;;;;;;;;;;;;;;;;;;5014345;28;19945;-88
2023/01/18 04:07:51;;;;;;;;;;;;;;;;;;5014409;28;20337;-87
2023/01/18 04:10:17;;;;;;;;;;;;;;;;;;5014321;28;20384;-88
2023/01/18 04:12:43;;;;;;;;;;;;;;;;;;5014398;28;19944;-88
2023/01/18 04:15:09;;;;;;;;;;;;;;;;;;5013898;28;19922;-88
2023/01/18 04:17:35;;;;;;;;;;;;;;;;;;5013578;28;19925;-88
2023/01/18 04:20:01;;;;;;;;;;;;;;;;;;5013870;28;20282;-88
2023/01/18 04:22:27;;;;;;;;;;;;;;;;;;5014333;28;19930;-89
2023/01/18 04:24:53;;;;;;;;;;;;;;;;;;5013834;28;19968;-89
2023/01/18 04:27:19;;;;;;;;;;;;;;;;;;5013590;28;19984;-89
2023/01/18 04:29:45;;;;;;;;;;;;;;;;;;5013745;28;19922;-89
2023/01/18 04:32:12;;;;;;;;;;;;;;;;;;5014263;28;19925;-92
2023/01/18 04:34:38;;;;;;;;;;;;;;;;;;5013883;28;19925;-88
2023/01/18 04:37:04;;;;;;;;;;;;;;;;;;5013656;28;19929;-89
2023/01/18 04:39:29;;;;;;;;;;;;;;;;;;5013882;28;19930;-89
2023/01/18 04:41:55;;;;;;;;;;;;;;;;;;5013122;28;20010;-88
2023/01/18 04:44:21;;;;;;;;;;;;;;;;;;5013738;28;19971;-89
2023/01/18 04:46:47;;;;;;;;;;;;;;;;;;5013478;28;19922;-89
2023/01/18 04:49:16;;;;;;;;;;;;;;;;;;5013598;28;19925;-89
2023/01/18 04:51:42;;;;;;;;;;;;;;;;;;5013290;28;19925;-88
2023/01/18 04:54:07;;;;;;;;;;;;;;;;;;5013255;28;19932;-88
2023/01/18 04:56:33;;;;;;;;;;;;;;;;;;5013230;28;19928;-88
2023/01/18 04:58:59;;;;;;;;;;;;;;;;;;5013293;28;20329;-87
2023/01/18 05:01:25;;;;;;;;;;;;;;;;;;5013108;28;20060;-87
2023/01/18 05:03:51;;;;;;;;;;;;;;;;;;5013311;28;19921;-88
2023/01/18 05:06:18;;;;;;;;;;;;;;;;;;5012932;28;19921;-88
2023/01/18 05:08:44;;;;;;;;;;;;;;;;;;5012813;28;19926;-88
2023/01/18 05:11:10;;;;;;;;;;;;;;;;;;5012737;28;19987;-88
2023/01/18 05:13:36;;;;;;;;;;;;;;;;;;5012941;28;19984;-87
2023/01/18 05:16:02;;;;;;;;;;;;;;;;;;5012947;28;19921;-88
2023/01/18 05:18:28;;;;;;;;;;;;;;;;;;5012854;28;20272;-88
2023/01/18 05:20:54;;;;;;;;;;;;;;;;;;5012719;28;19925;-88
2023/01/18 05:23:20;;;;;;;;;;;;;;;;;;5012798;28;19921;-88
2023/01/18 05:25:46;;;;;;;;;;;;;;;;;;5012986;28;19979;-88
2023/01/18 05:28:11;;;;;;;;;;;;;;;;;;5012386;28;20297;-88
2023/01/18 05:30:38;;;;;;;;;;;;;;;;;;5012494;28;20000;-89
2023/01/18 05:33:03;;;;;;;;;;;;;;;;;;5012527;28;19952;-88
2023/01/18 05:35:29;;;;;;;;;;;;;;;;;;5012536;28;19922;-88
2023/01/18 05:37:55;;;;;;;;;;;;;;;;;;5012641;28;20140;-88
2023/01/18 05:40:21;;;;;;;;;;;;;;;;;;5012622;28;19944;-89
2023/01/18 05:42:47;;;;;;;;;;;;;;;;;;5012239;28;20012;-89
2023/01/18 05:45:13;;;;;;;;;;;;;;;;;;5012323;28;20056;-88
2023/01/18 05:47:40;;;;;;;;;;;;;;;;;;5012424;28;19932;-88
2023/01/18 05:50:05;;;;;;;;;;;;;;;;;;5012295;28;20329;-88
2023/01/18 05:52:31;;;;;;;;;;;;;;;;;;5012249;28;20004;-88
2023/01/18 05:54:57;;;;;;;;;;;;;;;;;;5012351;28;19922;-88
2023/01/18 05:57:23;;;;;;;;;;;;;;;;;;5012332;28;19921;-88
2023/01/18 05:59:49;;;;;;;;;;;;;;;;;;5011996;28;19969;-88
2023/01/18 06:02:15;;;;;;;;;;;;;;;;;;5012262;28;19995;-88
2023/01/18 06:04:43;;;;;;;;;;;;;;;;;;5011775;28;20004;-89
2023/01/18 06:07:09;;;;;;;;;;;;;;;;;;5011782;28;19964;-88
2023/01/18 06:09:35;;;;;;;;;;;;;;;;;;5012109;28;20428;-88
2023/01/18 06:12:00;;;;;;;;;;;;;;;;;;5011749;28;20074;-88
2023/01/18 06:14:26;;;;;;;;;;;;;;;;;;5011686;28;19970;-88
2023/01/18 06:16:52;;;;;;;;;;;;;;;;;;5011744;28;20008;-88
2023/01/18 06:19:18;;;;;;;;;;;;;;;;;;5011890;28;19925;-88
2023/01/18 06:21:44;;;;;;;;;;;;;;;;;;5011506;28;20405;-88
2023/01/18 06:24:10;;;;;;;;;;;;;;;;;;5011365;28;19994;-89
2023/01/18 06:26:36;;;;;;;;;;;;;;;;;;5011700;28;20353;-88
2023/01/18 06:29:02;;;;;;;;;;;;;;;;;;5011259;28;19929;-88
2023/01/18 06:31:28;;;;;;;;;;;;;;;;;;5011648;28;19925;-88
2023/01/18 06:33:54;;;;;;;;;;;;;;;;;;5011335;28;19933;-88
2023/01/18 06:36:20;;;;;;;;;;;;;;;;;;5011245;28;19928;-88
2023/01/18 06:38:45;;;;;;;;;;;;;;;;;;5011506;28;19922;-89
2023/01/18 06:41:11;;;;;;;;;;;;;;;;;;5011392;28;20060;-89
2023/01/18 06:43:37;;;;;;;;;;;;;;;;;;5011268;28;19957;-88
2023/01/18 06:46:06;;;;;;;;;;;;;;;;;;5011369;28;20443;-87
2023/01/18 06:48:32;;;;;;;;;;;;;;;;;;5011032;28;19979;-88
2023/01/18 06:50:58;;;;;;;;;;;;;;;;;;5011136;28;20331;-87
2023/01/18 06:53:24;;;;;;;;;;;;;;;;;;5010926;28;19975;-88
2023/01/18 06:55:50;;;;;;;;;;;;;;;;;;5010940;28;19965;-88
2023/01/18 06:58:15;;;;;;;;;;;;;;;;;;5010993;28;20019;-88
2023/01/18 07:00:41;;;;;;;;;;;;;;;;;;5010963;28;20272;-88
2023/01/18 07:03:09;;;;;;;;;;;;;;;;;;5011068;28;20000;-88
2023/01/18 07:05:35;;;;;;;;;;;;;;;;;;5010571;28;19922;-88
2023/01/18 07:08:02;;;;;;;;;;;;;;;;;;5010889;28;19930;-88
2023/01/18 07:10:27;;;;;;;;;;;;;;;;;;5010765;28;19969;-88
2023/01/18 07:12:53;;;;;;;;;;;;;;;;;;5011419;28;20023;-88
2023/01/18 07:15:19;;;;;;;;;;;;;;;;;;5011066;28;20452;-88
2023/01/18 07:17:45;;;;;;;;;;;;;;;;;;5010697;28;19922;-89
2023/01/18 07:20:13;;;;;;;;;;;;;;;;;;5010926;28;19926;-88
2023/01/18 07:22:39;;;;;;;;;;;;;;;;;;5010704;28;20024;-88
2023/01/18 07:25:12;;;;;;;;;;;;;;;;;;5012614;28;19935;-90
2023/01/18 07:27:38;;;;;;;;;;;;;;;;;;5013062;28;20040;-92
2023/01/18 07:30:04;;;;;;;;;;;;;;;;;;5012418;28;19937;-96
2023/01/18 07:32:51;;;;;;;;;;;;;;;;;;5011749;28;19933;-93
2023/01/18 07:35:24;;;;;;;;;;;;;;;;;;5040035;23;19929;-94
2023/01/18 07:37:51;;;;;;;;;;;;;;;;;;4999208;28;19925;-94
2023/01/18 07:40:20;;;;;;;;;;;;;;;;;;4995631;28;20250;-95
2023/01/18 07:42:46;;;;;;;;;;;;;;;;;;4995565;28;20331;-92
2023/01/18 07:45:12;;;;;;;;;;;;;;;;;;4995814;28;19937;-88
2023/01/18 07:47:38;;;;;;;;;;;;;;;;;;4994798;28;19925;-91
2023/01/18 07:50:04;;;;;;;;;;;;;;;;;;5010556;28;19927;-90
2023/01/18 07:52:30;;;;;;;;;;;;;;;;;;5010601;28;19976;-90
2023/01/18 07:54:56;;;;;;;;;;;;;;;;;;4994366;28;19922;-90
2023/01/18 07:57:22;;;;;;;;;;;;;;;;;;4994221;28;20292;-92
2023/01/18 07:59:48;;;;;;;;;;;;;;;;;;4994802;28;20304;-88
2023/01/18 08:02:14;;;;;;;;;;;;;;;;;;5011032;28;19921;-90
2023/01/18 08:04:40;;;;;;;;;;;;;;;;;;5011127;28;19921;-92
2023/01/18 08:07:07;;;;;;;;;;;;;;;;;;4994463;28;20369;-89
2023/01/18 08:09:33;;;;;;;;;;;;;;;;;;5010981;28;19921;-89
2023/01/18 08:11:58;;;;;;;;;;;;;;;;;;5010667;28;19953;-90
2023/01/18 08:14:24;;;;;;;;;;;;;;;;;;4994433;28;20032;-89
2023/01/18 08:16:50;;;;;;;;;;;;;;;;;;5012323;28;19932;-89
2023/01/18 08:19:16;;;;;;;;;;;;;;;;;;4997963;28;19928;-91
2023/01/18 08:21:42;;;;;;;;;;;;;;;;;;4998024;28;19921;-89
2023/01/18 08:24:08;;;;;;;;;;;;;;;;;;4997743;28;19925;-90
2023/01/18 08:26:34;;;;;;;;;;;;;;;;;;4998501;28;19921;-91
2023/01/18 08:29:00;;;;;;;;;;;;;;;;;;5014432;28;19926;-91
2023/01/18 08:31:26;;;;;;;;;;;;;;;;;;4998374;28;19921;-92
2023/01/18 08:33:52;;;;;;;;;;;;;;;;;;4987426;28;20012;-93
2023/01/18 08:36:30;;;;;;;;;;;;;;;;;;4995677;28;20016;-92
2023/01/18 08:51:20;;;;;;;;;;;;;;;;;;5725564;22;2242426;-92
2023/01/18 08:53:47;;;;;;;;;;;;;;;;;;5015798;28;19928;-93
2023/01/18 08:56:13;;;;;;;;;;;;;;;;;;5016037;28;19921;-93
2023/01/18 08:58:39;;;;;;;;;;;;;;;;;;5015797;28;19925;-93
2023/01/18 09:01:05;;;;;;;;;;;;;;;;;;5015416;28;19925;-94
2023/01/18 09:03:31;;;;;;;;;;;;;;;;;;5015452;28;20398;-91
2023/01/18 09:05:59;;;;;;;;;;;;;;;;;;5032161;28;20371;-94
2023/01/18 09:08:25;;;;;;;;;;;;;;;;;;5015072;28;19977;-94
2023/01/18 09:10:51;;;;;;;;;;;;;;;;;;5015369;28;19921;-93
2023/01/18 09:13:18;;;;;;;;;;;;;;;;;;5015239;28;19921;-92
2023/01/18 09:15:48;;;;;;;;;;;;;;;;;;5015370;28;19927;-94
2023/01/18 09:18:16;;;;;;;;;;;;;;;;;;5015593;28;19932;-94
2023/01/18 09:20:42;;;;;;;;;;;;;;;;;;5015272;28;19920;-94
2023/01/18 09:23:09;;;;;;;;;;;;;;;;;;5015366;28;19921;-95
2023/01/18 09:25:35;;;;;;;;;;;;;;;;;;5015044;28;19928;-93
2023/01/18 09:28:01;;;;;;;;;;;;;;;;;;5014916;28;19978;-94
2023/01/18 09:30:27;;;;;;;;;;;;;;;;;;5015047;28;19925;-92
2023/01/18 09:32:53;;;;;;;;;;;;;;;;;;5015156;28;19928;-91
2023/01/18 09:35:19;;;;;;;;;;;;;;;;;;5016223;28;20426;-92
2023/01/18 09:37:45;;;;;;;;;;;;;;;;;;5018973;28;19929;-93
2023/01/18 09:43:00;;;;;;;;;;;;;;;;;;5025822;28;20341;-92
2023/01/18 09:45:26;;;;;;;;;;;;;;;;;;5017879;28;19970;-92
2023/01/18 09:47:56;;;;;;;;;;;;;;;;;;5017591;28;20007;-92
2023/01/18 09:50:23;;;;;;;;;;;;;;;;;;5020808;28;20038;-94
2023/01/18 09:52:50;;;;;;;;;;;;;;;;;;5004272;28;19928;-94
2023/01/18 09:55:16;;;;;;;;;;;;;;;;;;5004792;28;19925;-93
2023/01/18 09:57:43;;;;;;;;;;;;;;;;;;5004339;28;19932;-92
2023/01/18 10:00:10;;;;;;;;;;;;;;;;;;5020793;28;19921;-92
2023/01/18 10:02:39;;;;;;;;;;;;;;;;;;5004023;28;19947;-90
2023/01/18 10:05:05;;;;;;;;;;;;;;;;;;5004468;28;19925;-93
2023/01/18 10:07:34;;;;;;;;;;;;;;;;;;5005351;28;19921;-94
2023/01/18 10:10:00;;;;;;;;;;;;;;;;;;5004861;28;20379;-89
2023/01/18 10:12:26;;;;;;;;;;;;;;;;;;5003736;28;20255;-92
2023/01/18 10:14:55;;;;;;;;;;;;;;;;;;5004159;28;20035;-93
2023/01/18 10:17:21;;;;;;;;;;;;;;;;;;5006112;28;19952;-93
2023/01/18 10:19:48;;;;;;;;;;;;;;;;;;5020164;28;19944;-90
2023/01/18 10:22:14;;;;;;;;;;;;;;;;;;5002512;28;20386;-92
2023/01/18 10:24:40;;;;;;;;;;;;;;;;;;5006166;28;20347;-93
2023/01/18 10:27:09;;;;;;;;;;;;;;;;;;5005139;28;19921;-93
2023/01/18 10:29:36;;;;;;;;;;;;;;;;;;5002862;28;19925;-90
2023/01/18 10:32:01;;;;;;;;;;;;;;;;;;5004432;28;19921;-91
2023/01/18 11:18:16;;;;;;;;;;;;;;;;;;700864;22;20224;-91
2023/01/18 11:20:44;;;;;;;;;;;;;;;;;;5036162;28;19929;-90
2023/01/18 11:23:13;;;;;;;;;;;;;;;;;;5019552;28;19921;-92
2023/01/18 11:25:39;;;;;;;;;;;;;;;;;;5018608;28;19975;-91
2023/01/18 11:28:06;;;;;;;;;;;;;;;;;;5018813;28;19928;-91
2023/01/18 11:30:32;;;;;;;;;;;;;;;;;;5018961;28;20372;-92
2023/01/18 11:33:01;;;;;;;;;;;;;;;;;;5036132;28;19924;-93
2023/01/18 11:38:38;;;;;;;;;;;;;;;;;;5033090;28;19966;-94
2023/01/18 11:41:08;;;;;;;;;;;;;;;;;;5035110;28;19929;-94
2023/01/18 11:43:34;;;;;;;;;;;;;;;;;;5035272;28;19931;-93
2023/01/18 11:46:00;;;;;;;;;;;;;;;;;;5035454;28;19921;-90
2023/01/18 11:48:27;;;;;;;;;;;;;;;;;;5034650;28;19924;-92
2023/01/18 11:50:53;;;;;;;;;;;;;;;;;;5017916;28;19990;-89
2023/01/18 11:53:19;;;;;;;;;;;;;;;;;;5034318;28;20379;-90
2023/01/18 11:55:46;;;;;;;;;;;;;;;;;;5034132;28;19979;-90
2023/01/18 11:58:12;;;;;;;;;;;;;;;;;;5018086;28;19960;-89
2023/01/18 12:00:38;;;;;;;;;;;;;;;;;;5017993;28;19936;-91
2023/01/18 12:03:04;;;;;;;;;;;;;;;;;;5034388;28;19929;-90
2023/01/18 12:05:30;;;;;;;;;;;;;;;;;;5034222;28;20323;-89
2023/01/18 12:07:56;;;;;;;;;;;;;;;;;;5034112;28;19940;-90
2023/01/18 12:10:22;;;;;;;;;;;;;;;;;;5034184;28;19921;-90
2023/01/18 12:12:51;;;;;;;;;;;;;;;;;;5034076;28;19971;-90
2023/01/18 12:15:17;;;;;;;;;;;;;;;;;;5018470;28;19921;-93
2023/01/18 12:17:43;;;;;;;;;;;;;;;;;;5018121;28;19925;-90
2023/01/18 12:20:09;;;;;;;;;;;;;;;;;;5034395;28;20363;-93
2023/01/18 12:22:41;;;;;;;;;;;;;;;;;;5037652;28;19943;-94
2023/01/18 12:28:22;;;;;;;;;;;;;;;;;;5018176;28;20284;-93
2023/01/18 12:30:48;;;;;;;;;;;;;;;;;;5035339;28;20025;-93
2023/01/18 12:33:15;;;;;;;;;;;;;;;;;;5035087;28;19920;-95
2023/01/18 12:35:41;;;;;;;;;;;;;;;;;;5018184;28;19924;-93
2023/01/18 12:38:09;;;;;;;;;;;;;;;;;;5018191;28;19928;-93
2023/01/18 12:40:35;;;;;;;;;;;;;;;;;;5035293;28;19987;-95
2023/01/18 12:43:05;;;;;;;;;;;;;;;;;;5034719;28;20307;-95
2023/01/18 12:45:33;;;;;;;;;;;;;;;;;;5018715;28;19925;-92
2023/01/18 12:48:07;;;;;;;;;;;;;;;;;;5034750;28;19997;-94
2023/01/18 12:50:34;;;;;;;;;;;;;;;;;;5018105;28;20253;-94
2023/01/18 12:53:00;;;;;;;;;;;;;;;;;;5034849;28;19928;-94
2023/01/18 12:55:30;;;;;;;;;;;;;;;;;;5034779;28;19921;-91
2023/01/18 12:57:58;;;;;;;;;;;;;;;;;;5017620;28;19932;-92
2023/01/18 13:00:24;;;;;;;;;;;;;;;;;;5034506;28;19950;-93
2023/01/18 13:40:37;;;;;;;;;;;;;;;;;;4962008;28;19922;-94
2023/01/18 13:43:11;;;;;;;;;;;;;;;;;;5035680;28;19936;-93
2023/01/18 13:45:40;;;;;;;;;;;;;;;;;;5029083;28;19924;-95
2023/01/18 13:53:16;;;;;;;;;;;;;;;;;;5081906;28;19924;-96
2023/01/18 13:55:42;;;;;;;;;;;;;;;;;;5031074;28;19974;-92
2023/01/18 13:58:08;;;;;;;;;;;;;;;;;;5011598;28;20027;-90
2023/01/18 14:00:34;;;;;;;;;;;;;;;;;;5017347;28;19925;-92
2023/01/18 14:03:00;;;;;;;;;;;;;;;;;;5001176;28;20341;-95
2023/01/18 14:08:25;;;;;;;;;;;;;;;;;;5013534;28;19968;-93
2023/01/18 14:10:52;;;;;;;;;;;;;;;;;;5038676;28;19921;-94
2023/01/18 14:13:27;;;;;;;;;;;;;;;;;;5039794;28;20016;-95
2023/01/18 14:15:53;;;;;;;;;;;;;;;;;;5037954;28;19981;-94
2023/01/18 14:28:45;;;;;;;;;;;;;;;;;;5071525;28;19924;-92
2023/01/18 14:31:10;;;;;;;;;;;;;;;;;;5041237;28;19939;-94
2023/01/18 14:33:37;;;;;;;;;;;;;;;;;;5057790;28;19927;-95
2023/01/18 14:36:42;;;;;;;;;;;;;;;;;;5068030;28;19931;-95
2023/01/18 14:39:16;;;;;;;;;;;;;;;;;;5046741;28;19925;-94
2023/01/18 14:44:32;;;;;;;;;;;;;;;;;;5048038;28;20269;-94
2023/01/18 14:46:58;;;;;;;;;;;;;;;;;;5039773;28;19925;-93
2023/01/18 14:49:24;;;;;;;;;;;;;;;;;;5039794;28;19920;-90
2023/01/18 14:51:50;;;;;;;;;;;;;;;;;;5039013;28;19924;-87
2023/01/18 14:54:16;;;;;;;;;;;;;;;;;;5056793;28;19921;-90
2023/01/18 14:56:41;;;;;;;;;;;;;;;;;;5055739;28;19992;-90
2023/01/18 14:59:07;;;;;;;;;;;;;;;;;;5038869;28;19924;-94
2023/01/18 15:01:34;;;;;;;;;;;;;;;;;;5039443;28;19921;-92
2023/01/18 15:04:00;;;;;;;;;;;;;;;;;;5039340;28;19931;-92
2023/01/18 15:06:26;;;;;;;;;;;;;;;;;;5039589;28;19920;-91
2023/01/18 15:08:52;;;;;;;;;;;;;;;;;;5039136;28;20367;-92
2023/01/18 15:11:18;;;;;;;;;;;;;;;;;;5038960;28;20362;-90
2023/01/18 15:13:46;;;;;;;;;;;;;;;;;;5055077;28;19920;-91
2023/01/18 15:16:12;;;;;;;;;;;;;;;;;;5038495;28;19921;-90
2023/01/18 15:18:38;;;;;;;;;;;;;;;;;;5055188;28;19925;-90
2023/01/18 15:21:05;;;;;;;;;;;;;;;;;;5054999;28;19920;-91
2023/01/18 15:23:30;;;;;;;;;;;;;;;;;;5054933;28;20421;-89
2023/01/18 15:25:56;;;;;;;;;;;;;;;;;;5054690;28;19921;-89
2023/01/18 15:28:24;;;;;;;;;;;;;;;;;;5054865;28;19924;-89
2023/01/18 15:30:50;;;;;;;;;;;;;;;;;;5038967;28;20341;-89
2023/01/18 15:33:16;;;;;;;;;;;;;;;;;;5038488;28;19982;-89
2023/01/18 15:35:42;;;;;;;;;;;;;;;;;;5054792;28;19921;-90
2023/01/18 15:38:07;;;;;;;;;;;;;;;;;;5054820;28;19924;-90
2023/01/18 15:40:34;;;;;;;;;;;;;;;;;;5054398;28;19927;-88
2023/01/18 15:43:00;;;;;;;;;;;;;;;;;;5037841;28;19997;-89
2023/01/18 15:45:27;;;;;;;;;;;;;;;;;;5038101;28;19920;-89
2023/01/18 15:47:53;;;;;;;;;;;;;;;;;;5054222;28;20024;-89
2023/01/18 15:50:19;;;;;;;;;;;;;;;;;;5037852;28;19924;-89
2023/01/18 15:52:45;;;;;;;;;;;;;;;;;;5038242;28;19936;-89
2023/01/18 15:55:13;;;;;;;;;;;;;;;;;;5054404;28;19972;-89
2023/01/18 15:57:39;;;;;;;;;;;;;;;;;;5037712;28;19935;-89
2023/01/18 16:00:04;;;;;;;;;;;;;;;;;;5037848;28;19920;-88
2023/01/18 16:02:30;;;;;;;;;;;;;;;;;;5037997;28;19920;-89
2023/01/18 16:04:56;;;;;;;;;;;;;;;;;;5054833;28;19966;-89
2023/01/18 16:07:22;;;;;;;;;;;;;;;;;;5053961;28;19920;-90
2023/01/18 16:09:48;;;;;;;;;;;;;;;;;;5054304;28;19927;-89
2023/01/18 16:12:14;;;;;;;;;;;;;;;;;;5053928;28;19964;-89
2023/01/18 16:14:45;;;;;;;;;;;;;;;;;;5037841;28;20352;-89
2023/01/18 16:17:10;;;;;;;;;;;;;;;;;;5037695;28;19921;-89
2023/01/18 16:19:36;;;;;;;;;;;;;;;;;;5054070;28;20015;-89
2023/01/18 16:22:02;;;;;;;;;;;;;;;;;;5053998;28;20375;-90
2023/01/18 16:24:28;;;;;;;;;;;;;;;;;;5054241;28;20290;-89
2023/01/18 16:26:54;;;;;;;;;;;;;;;;;;5037401;28;19924;-89
2023/01/18 16:29:20;;;;;;;;;;;;;;;;;;5053906;28;20303;-89
2023/01/18 16:31:47;;;;;;;;;;;;;;;;;;5054039;28;19994;-89
2023/01/18 16:34:13;;;;;;;;;;;;;;;;;;5054243;28;20318;-89
2023/01/18 16:36:38;;;;;;;;;;;;;;;;;;5036977;28;19920;-88
2023/01/18 16:39:04;;;;;;;;;;;;;;;;;;5053432;28;19924;-89
2023/01/18 16:41:30;;;;;;;;;;;;;;;;;;5053779;28;19977;-89
2023/01/18 16:43:56;;;;;;;;;;;;;;;;;;5037422;28;20013;-89
2023/01/18 16:46:22;;;;;;;;;;;;;;;;;;5053706;28;19920;-89
2023/01/18 16:48:48;;;;;;;;;;;;;;;;;;5036908;28;20360;-89
2023/01/18 16:51:17;;;;;;;;;;;;;;;;;;5053550;28;19931;-89
2023/01/18 16:53:43;;;;;;;;;;;;;;;;;;5036916;28;19920;-89
2023/01/18 16:56:09;;;;;;;;;;;;;;;;;;5053662;28;20339;-89
2023/01/18 16:58:35;;;;;;;;;;;;;;;;;;5036264;28;19986;-89
2023/01/18 17:01:01;;;;;;;;;;;;;;;;;;5040987;28;20007;-89
2023/01/18 17:03:27;;;;;;;;;;;;;;;;;;5057980;28;20406;-88
2023/01/18 17:05:54;;;;;;;;;;;;;;;;;;5057482;28;19966;-89
2023/01/18 17:08:20;;;;;;;;;;;;;;;;;;5041030;28;19924;-90
2023/01/18 17:10:46;;;;;;;;;;;;;;;;;;5057669;28;19921;-89
2023/01/18 17:13:12;;;;;;;;;;;;;;;;;;5041159;28;19920;-89
2023/01/18 17:15:40;;;;;;;;;;;;;;;;;;5040792;28;19928;-90
2023/01/18 17:18:07;;;;;;;;;;;;;;;;;;5040687;28;20279;-89
2023/01/18 17:20:33;;;;;;;;;;;;;;;;;;5041277;28;19928;-89
2023/01/18 17:22:59;;;;;;;;;;;;;;;;;;5040540;28;19944;-90
2023/01/18 17:25:25;;;;;;;;;;;;;;;;;;5057286;28;19920;-89
2023/01/18 17:27:51;;;;;;;;;;;;;;;;;;5040206;28;20399;-89
2023/01/18 17:30:17;;;;;;;;;;;;;;;;;;5056915;28;20019;-90
2023/01/18 17:32:46;;;;;;;;;;;;;;;;;;5040782;28;19974;-88
2023/01/18 17:35:12;;;;;;;;;;;;;;;;;;5040547;28;19920;-89
2023/01/18 17:37:38;;;;;;;;;;;;;;;;;;5056668;28;20074;-89
2023/01/18 17:40:04;;;;;;;;;;;;;;;;;;5057333;28;19924;-89
2023/01/18 17:42:30;;;;;;;;;;;;;;;;;;5057607;28;19924;-90
2023/01/18 17:45:02;;;;;;;;;;;;;;;;;;5041102;28;19931;-90
2023/01/18 17:47:28;;;;;;;;;;;;;;;;;;5057235;28;19920;-90
2023/01/18 17:49:54;;;;;;;;;;;;;;;;;;5040385;28;19921;-90
2023/01/18 17:52:20;;;;;;;;;;;;;;;;;;5057336;28;19920;-90
2023/01/18 17:54:46;;;;;;;;;;;;;;;;;;5040797;28;19920;-90
2023/01/18 17:57:12;;;;;;;;;;;;;;;;;;5041013;28;19935;-90
2023/01/18 17:59:38;;;;;;;;;;;;;;;;;;5040805;28;19920;-91
2023/01/18 18:02:04;;;;;;;;;;;;;;;;;;5040428;28;20358;-89
2023/01/18 18:04:30;;;;;;;;;;;;;;;;;;5040499;28;19921;-89
2023/01/18 18:06:57;;;;;;;;;;;;;;;;;;5057217;28;19927;-90
2023/01/18 18:09:23;;;;;;;;;;;;;;;;;;5040356;28;19920;-90
2023/01/18 18:11:49;;;;;;;;;;;;;;;;;;5056875;28;20291;-91
2023/01/18 18:14:16;;;;;;;;;;;;;;;;;;5056841;28;19921;-91
2023/01/18 18:16:42;;;;;;;;;;;;;;;;;;5040289;28;20152;-90
2023/01/18 18:19:08;;;;;;;;;;;;;;;;;;5056823;28;19924;-90
2023/01/18 18:21:34;;;;;;;;;;;;;;;;;;5040610;28;19935;-89
2023/01/18 18:24:00;;;;;;;;;;;;;;;;;;5056678;28;20011;-90
2023/01/18 18:26:26;;;;;;;;;;;;;;;;;;5039822;28;19926;-90
2023/01/18 18:28:52;;;;;;;;;;;;;;;;;;5039683;28;19920;-90
2023/01/18 18:31:19;;;;;;;;;;;;;;;;;;5056555;28;19973;-90
2023/01/18 18:33:45;;;;;;;;;;;;;;;;;;5039948;28;19921;-90
2023/01/18 18:36:11;;;;;;;;;;;;;;;;;;5039652;28;19943;-91
2023/01/18 18:38:37;;;;;;;;;;;;;;;;;;5056400;28;19924;-90
2023/01/18 18:41:03;;;;;;;;;;;;;;;;;;5056302;28;19987;-89
2023/01/18 18:43:29;;;;;;;;;;;;;;;;;;5056720;28;20356;-90
2023/01/18 18:45:54;;;;;;;;;;;;;;;;;;5056639;28;20016;-91
2023/01/18 18:48:20;;;;;;;;;;;;;;;;;;5039649;28;19960;-90
2023/01/18 18:50:46;;;;;;;;;;;;;;;;;;5056222;28;20010;-90
2023/01/18 18:53:12;;;;;;;;;;;;;;;;;;5039762;28;20352;-90
2023/01/18 18:55:38;;;;;;;;;;;;;;;;;;5056332;28;19920;-90
2023/01/18 18:58:04;;;;;;;;;;;;;;;;;;5056171;28;19925;-90
2023/01/18 19:00:30;;;;;;;;;;;;;;;;;;5039351;28;19927;-90
2023/01/18 19:02:56;;;;;;;;;;;;;;;;;;5039302;28;19924;-90
2023/01/18 19:05:22;;;;;;;;;;;;;;;;;;5039764;28;19954;-90
2023/01/18 19:07:48;;;;;;;;;;;;;;;;;;5056060;28;19924;-91
2023/01/18 19:10:14;;;;;;;;;;;;;;;;;;5039430;28;20404;-90
2023/01/18 19:12:40;;;;;;;;;;;;;;;;;;5055862;28;19920;-91
2023/01/18 19:15:06;;;;;;;;;;;;;;;;;;5039026;28;19924;-91
2023/01/18 19:17:32;;;;;;;;;;;;;;;;;;5038627;28;19932;-92